sensor_id;sensor_type;location;lat;lon;timestamp;temperature;humidity
21115;DHT22;10715;48.546;9.896;2022-11-11T00:01:13;-0.10;99.90
21115;DHT22;10715;48.546;9.896;2022-11-11T00:03:40;-0.10;99.90
21115;DHT22;10715;48.546;9.896;2022-11-11T00:06:13;-0.20;99.90
21115;DHT22;10715;48.546;9.896;2022-11-11T00:08:40;-0.20;99.90
21115;DHT22;10715;48.546;9.896;2022-11-11T00:11:08;-0.20;99.90
21115;DHT22;10715;48.546;9.896;2022-11-11T00:13:34;-0.20;99.90
21115;DHT22;10715;48.546;9.896;2022-11-11T00:18:30;-0.30;99.90
21115;DHT22;10715;48.546;9.896;2022-11-11T00:21:14;-0.20;99.90
21115;DHT22;10715;48.546;9.896;2022-11-11T00:23:58;-0.20;99.90
21115;DHT22;10715;48.546;9.896;2022-11-11T00:26:42;-0.30;99.90
21115;DHT22;10715;48.546;9.896;2022-11-11T00:29:08;-0.30;99.90
21115;DHT22;10715;48.546;9.896;2022-11-11T00:31:37;-0.30;99.90
21115;DHT22;10715;48.546;9.896;2022-11-11T00:34:22;-0.40;99.90
21115;DHT22;10715;48.546;9.896;2022-11-11T00:36:48;-0.40;99.90
21115;DHT22;10715;48.546;9.896;2022-11-11T00:39:14;-0.40;99.90
21115;DHT22;10715;48.546;9.896;2022-11-11T00:41:39;-0.40;99.90
21115;DHT22;10715;48.546;9.896;2022-11-11T00:44:05;-0.50;99.90
21115;DHT22;10715;48.546;9.896;2022-11-11T00:46:31;-0.40;99.90
21115;DHT22;10715;48.546;9.896;2022-11-11T00:49:15;-0.40;99.90
21115;DHT22;10715;48.546;9.896;2022-11-11T00:51:59;-0.40;99.90
21115;DHT22;10715;48.546;9.896;2022-11-11T00:54:25;-0.40;99.90
21115;DHT22;10715;48.546;9.896;2022-11-11T00:56:50;-0.40;99.90
21115;DHT22;10715;48.546;9.896;2022-11-11T00:59:16;-0.40;99.90
21115;DHT22;10715;48.546;9.896;2022-11-11T01:01:42;-0.40;99.90
21115;DHT22;10715;48.546;9.896;2022-11-11T01:04:07;-0.40;99.90
21115;DHT22;10715;48.546;9.896;2022-11-11T01:06:33;-0.40;99.90
21115;DHT22;10715;48.546;9.896;2022-11-11T01:09:04;-0.40;99.90
21115;DHT22;10715;48.546;9.896;2022-11-11T01:11:30;-0.40;99.90
21115;DHT22;10715;48.546;9.896;2022-11-11T01:13:56;-0.50;99.90
21115;DHT22;10715;48.546;9.896;2022-11-11T01:16:23;-0.50;99.90
21115;DHT22;10715;48.546;9.896;2022-11-11T01:18:50;-0.50;99.90
21115;DHT22;10715;48.546;9.896;2022-11-11T01:21:18;-0.50;99.90
21115;DHT22;10715;48.546;9.896;2022-11-11T01:23:45;-0.50;99.90
21115;DHT22;10715;48.546;9.896;2022-11-11T01:26:23;-0.50;99.90
21115;DHT22;10715;48.546;9.896;2022-11-11T01:28:54;-0.50;99.90
21115;DHT22;10715;48.546;9.896;2022-11-11T01:31:22;-0.50;99.90
21115;DHT22;10715;48.546;9.896;2022-11-11T01:33:49;-0.60;99.90
21115;DHT22;10715;48.546;9.896;2022-11-11T01:36:18;-0.50;99.90
21115;DHT22;10715;48.546;9.896;2022-11-11T01:38:48;-0.60;99.90
21115;DHT22;10715;48.546;9.896;2022-11-11T01:41:17;-0.50;99.90
21115;DHT22;10715;48.546;9.896;2022-11-11T01:47:04;-0.60;99.90
21115;DHT22;10715;48.546;9.896;2022-11-11T01:54:49;-0.60;99.90
21115;DHT22;10715;48.546;9.896;2022-11-11T01:59:48;-0.70;99.90
21115;DHT22;10715;48.546;9.896;2022-11-11T02:02:21;-0.70;99.90
21115;DHT22;10715;48.546;9.896;2022-11-11T02:04:48;-0.70;99.90
21115;DHT22;10715;48.546;9.896;2022-11-11T02:07:36;-0.70;99.90
21115;DHT22;10715;48.546;9.896;2022-11-11T02:10:04;-0.70;99.90
21115;DHT22;10715;48.546;9.896;2022-11-11T02:12:31;-0.70;99.90
21115;DHT22;10715;48.546;9.896;2022-11-11T02:15:16;-0.80;99.90
21115;DHT22;10715;48.546;9.896;2022-11-11T02:17:41;-0.80;99.90
21115;DHT22;10715;48.546;9.896;2022-11-11T02:20:09;-0.80;99.90
21115;DHT22;10715;48.546;9.896;2022-11-11T02:22:50;-0.80;99.90
21115;DHT22;10715;48.546;9.896;2022-11-11T02:25:21;-0.80;99.90
21115;DHT22;10715;48.546;9.896;2022-11-11T02:27:50;-0.80;99.90
21115;DHT22;10715;48.546;9.896;2022-11-11T02:30:17;-0.80;99.90
21115;DHT22;10715;48.546;9.896;2022-11-11T02:32:46;-0.80;99.90
21115;DHT22;10715;48.546;9.896;2022-11-11T02:35:19;-0.80;99.90
21115;DHT22;10715;48.546;9.896;2022-11-11T02:37:50;-0.80;99.90
21115;DHT22;10715;48.546;9.896;2022-11-11T02:40:25;-0.70;99.90
21115;DHT22;10715;48.546;9.896;2022-11-11T02:42:52;-0.80;99.90
21115;DHT22;10715;48.546;9.896;2022-11-11T02:45:17;-0.80;99.90
21115;DHT22;10715;48.546;9.896;2022-11-11T02:47:43;-0.80;99.90
21115;DHT22;10715;48.546;9.896;2022-11-11T02:50:09;-0.80;99.90
21115;DHT22;10715;48.546;9.896;2022-11-11T02:52:34;-0.90;99.90
21115;DHT22;10715;48.546;9.896;2022-11-11T02:55:01;-0.90;99.90
21115;DHT22;10715;48.546;9.896;2022-11-11T02:57:27;-0.90;99.90
21115;DHT22;10715;48.546;9.896;2022-11-11T02:59:54;-0.90;99.90
21115;DHT22;10715;48.546;9.896;2022-11-11T03:02:20;-0.90;99.90
21115;DHT22;10715;48.546;9.896;2022-11-11T03:04:46;-1.00;99.90
21115;DHT22;10715;48.546;9.896;2022-11-11T03:07:12;-1.00;99.90
21115;DHT22;10715;48.546;9.896;2022-11-11T03:09:38;-1.00;99.90
21115;DHT22;10715;48.546;9.896;2022-11-11T03:12:04;-1.00;99.90
21115;DHT22;10715;48.546;9.896;2022-11-11T03:14:30;-0.90;99.90
21115;DHT22;10715;48.546;9.896;2022-11-11T03:16:55;-0.90;99.90
21115;DHT22;10715;48.546;9.896;2022-11-11T03:19:40;-0.90;99.90
21115;DHT22;10715;48.546;9.896;2022-11-11T03:22:05;-0.90;99.90
21115;DHT22;10715;48.546;9.896;2022-11-11T03:24:31;-0.90;99.90
21115;DHT22;10715;48.546;9.896;2022-11-11T03:27:15;-0.90;99.90
21115;DHT22;10715;48.546;9.896;2022-11-11T03:29:41;-0.90;99.90
21115;DHT22;10715;48.546;9.896;2022-11-11T03:32:07;-0.90;99.90
21115;DHT22;10715;48.546;9.896;2022-11-11T03:34:33;-0.90;99.90
21115;DHT22;10715;48.546;9.896;2022-11-11T03:36:59;-0.90;99.90
21115;DHT22;10715;48.546;9.896;2022-11-11T03:39:43;-0.90;99.90
21115;DHT22;10715;48.546;9.896;2022-11-11T03:42:09;-0.90;99.90
21115;DHT22;10715;48.546;9.896;2022-11-11T03:44:34;-0.90;99.90
21115;DHT22;10715;48.546;9.896;2022-11-11T03:47:00;-0.90;99.90
21115;DHT22;10715;48.546;9.896;2022-11-11T03:49:26;-0.90;99.90
21115;DHT22;10715;48.546;9.896;2022-11-11T03:51:51;-0.90;99.90
21115;DHT22;10715;48.546;9.896;2022-11-11T03:54:17;-0.90;99.90
21115;DHT22;10715;48.546;9.896;2022-11-11T03:56:43;-1.00;99.90
21115;DHT22;10715;48.546;9.896;2022-11-11T03:59:08;-1.00;99.90
21115;DHT22;10715;48.546;9.896;2022-11-11T04:01:34;-1.00;99.90
21115;DHT22;10715;48.546;9.896;2022-11-11T04:04:18;-1.00;99.90
21115;DHT22;10715;48.546;9.896;2022-11-11T04:07:02;-1.00;99.90
21115;DHT22;10715;48.546;9.896;2022-11-11T04:09:47;-1.00;99.90
21115;DHT22;10715;48.546;9.896;2022-11-11T04:12:32;-1.00;99.90
21115;DHT22;10715;48.546;9.896;2022-11-11T04:15:18;-1.00;99.90
21115;DHT22;10715;48.546;9.896;2022-11-11T04:18:02;-1.00;99.90
21115;DHT22;10715;48.546;9.896;2022-11-11T04:20:28;-1.00;99.90
21115;DHT22;10715;48.546;9.896;2022-11-11T04:23:12;-1.00;99.90
21115;DHT22;10715;48.546;9.896;2022-11-11T04:25:38;-1.00;99.90
21115;DHT22;10715;48.546;9.896;2022-11-11T04:28:18;-1.00;99.90
21115;DHT22;10715;48.546;9.896;2022-11-11T04:31:02;-1.00;99.90
21115;DHT22;10715;48.546;9.896;2022-11-11T04:33:28;-1.10;99.90
21115;DHT22;10715;48.546;9.896;2022-11-11T04:35:54;-1.10;99.90
21115;DHT22;10715;48.546;9.896;2022-11-11T04:38:19;-1.00;99.90
21115;DHT22;10715;48.546;9.896;2022-11-11T04:41:03;-1.10;99.90
21115;DHT22;10715;48.546;9.896;2022-11-11T04:43:30;-1.10;99.90
21115;DHT22;10715;48.546;9.896;2022-11-11T04:45:59;-1.10;99.90
21115;DHT22;10715;48.546;9.896;2022-11-11T04:48:26;-1.10;99.90
21115;DHT22;10715;48.546;9.896;2022-11-11T04:50:52;-1.10;99.90
21115;DHT22;10715;48.546;9.896;2022-11-11T04:53:17;-1.10;99.90
21115;DHT22;10715;48.546;9.896;2022-11-11T04:55:44;-1.10;99.90
21115;DHT22;10715;48.546;9.896;2022-11-11T04:58:32;-1.10;99.90
21115;DHT22;10715;48.546;9.896;2022-11-11T05:00:58;-1.10;99.90
21115;DHT22;10715;48.546;9.896;2022-11-11T05:03:24;-1.10;99.90
21115;DHT22;10715;48.546;9.896;2022-11-11T05:05:51;-1.10;99.90
21115;DHT22;10715;48.546;9.896;2022-11-11T05:08:37;-1.10;99.90
21115;DHT22;10715;48.546;9.896;2022-11-11T05:11:28;-1.10;99.90
21115;DHT22;10715;48.546;9.896;2022-11-11T05:13:56;-1.10;99.90
21115;DHT22;10715;48.546;9.896;2022-11-11T05:16:46;-1.20;99.90
21115;DHT22;10715;48.546;9.896;2022-11-11T05:19:31;-1.20;99.90
21115;DHT22;10715;48.546;9.896;2022-11-11T05:22:35;-1.20;99.90
21115;DHT22;10715;48.546;9.896;2022-11-11T05:25:02;-1.30;99.90
21115;DHT22;10715;48.546;9.896;2022-11-11T05:27:46;-1.20;99.90
21115;DHT22;10715;48.546;9.896;2022-11-11T05:30:13;-1.20;99.90
21115;DHT22;10715;48.546;9.896;2022-11-11T05:32:40;-1.20;99.90
21115;DHT22;10715;48.546;9.896;2022-11-11T05:35:07;-1.20;99.90
21115;DHT22;10715;48.546;9.896;2022-11-11T05:37:33;-1.20;99.90
21115;DHT22;10715;48.546;9.896;2022-11-11T05:39:58;-1.20;99.90
21115;DHT22;10715;48.546;9.896;2022-11-11T05:42:24;-1.20;99.90
21115;DHT22;10715;48.546;9.896;2022-11-11T05:44:50;-1.10;99.90
21115;DHT22;10715;48.546;9.896;2022-11-11T05:47:16;-1.10;99.90
21115;DHT22;10715;48.546;9.896;2022-11-11T05:49:42;-1.10;99.90
21115;DHT22;10715;48.546;9.896;2022-11-11T05:52:10;-1.10;99.90
21115;DHT22;10715;48.546;9.896;2022-11-11T05:54:35;-1.10;99.90
21115;DHT22;10715;48.546;9.896;2022-11-11T05:57:01;-1.10;99.90
21115;DHT22;10715;48.546;9.896;2022-11-11T05:59:28;-1.10;99.90
21115;DHT22;10715;48.546;9.896;2022-11-11T06:01:54;-1.10;99.90
21115;DHT22;10715;48.546;9.896;2022-11-11T06:04:20;-1.10;99.90
21115;DHT22;10715;48.546;9.896;2022-11-11T06:06:46;-1.10;99.90
21115;DHT22;10715;48.546;9.896;2022-11-11T06:09:11;-1.10;99.90
21115;DHT22;10715;48.546;9.896;2022-11-11T06:11:37;-1.10;99.90
21115;DHT22;10715;48.546;9.896;2022-11-11T06:14:03;-1.20;99.90
21115;DHT22;10715;48.546;9.896;2022-11-11T06:16:29;-1.20;99.90
21115;DHT22;10715;48.546;9.896;2022-11-11T06:18:55;-1.20;99.90
21115;DHT22;10715;48.546;9.896;2022-11-11T06:21:20;-1.20;99.90
21115;DHT22;10715;48.546;9.896;2022-11-11T06:23:46;-1.20;99.90
21115;DHT22;10715;48.546;9.896;2022-11-11T06:26:13;-1.20;99.90
21115;DHT22;10715;48.546;9.896;2022-11-11T06:28:44;-1.20;99.90
21115;DHT22;10715;48.546;9.896;2022-11-11T06:31:32;-1.20;99.90
21115;DHT22;10715;48.546;9.896;2022-11-11T06:33:57;-1.20;99.90
21115;DHT22;10715;48.546;9.896;2022-11-11T06:36:23;-1.10;99.90
21115;DHT22;10715;48.546;9.896;2022-11-11T06:38:48;-1.10;99.90
21115;DHT22;10715;48.546;9.896;2022-11-11T06:41:14;-1.00;99.90
21115;DHT22;10715;48.546;9.896;2022-11-11T06:43:43;-1.00;99.90
21115;DHT22;10715;48.546;9.896;2022-11-11T06:46:16;-1.00;99.90
21115;DHT22;10715;48.546;9.896;2022-11-11T06:48:44;-0.90;99.90
21115;DHT22;10715;48.546;9.896;2022-11-11T06:51:10;-0.90;99.90
21115;DHT22;10715;48.546;9.896;2022-11-11T06:53:37;-0.80;99.90
21115;DHT22;10715;48.546;9.896;2022-11-11T06:56:02;-0.80;99.90
21115;DHT22;10715;48.546;9.896;2022-11-11T06:58:28;-0.70;99.90
21115;DHT22;10715;48.546;9.896;2022-11-11T07:00:54;-0.70;99.90
21115;DHT22;10715;48.546;9.896;2022-11-11T07:03:20;-0.50;99.90
21115;DHT22;10715;48.546;9.896;2022-11-11T07:05:47;-0.50;99.90
21115;DHT22;10715;48.546;9.896;2022-11-11T07:08:15;-0.40;99.90
21115;DHT22;10715;48.546;9.896;2022-11-11T07:10:46;-0.30;99.90
21115;DHT22;10715;48.546;9.896;2022-11-11T07:13:13;-0.20;99.90
21115;DHT22;10715;48.546;9.896;2022-11-11T07:15:40;-0.20;99.90
21115;DHT22;10715;48.546;9.896;2022-11-11T07:18:06;-0.10;99.90
21115;DHT22;10715;48.546;9.896;2022-11-11T07:20:32;0.00;99.90
21115;DHT22;10715;48.546;9.896;2022-11-11T07:22:58;0.10;99.90
21115;DHT22;10715;48.546;9.896;2022-11-11T07:25:24;0.20;99.90
21115;DHT22;10715;48.546;9.896;2022-11-11T07:27:49;0.30;99.90
21115;DHT22;10715;48.546;9.896;2022-11-11T07:30:15;0.40;99.90
21115;DHT22;10715;48.546;9.896;2022-11-11T07:32:49;0.50;99.90
21115;DHT22;10715;48.546;9.896;2022-11-11T07:35:15;0.60;99.90
21115;DHT22;10715;48.546;9.896;2022-11-11T07:37:42;0.70;99.90
21115;DHT22;10715;48.546;9.896;2022-11-11T07:40:10;0.80;99.90
21115;DHT22;10715;48.546;9.896;2022-11-11T07:42:37;0.90;99.90
21115;DHT22;10715;48.546;9.896;2022-11-11T07:45:04;1.00;99.90
21115;DHT22;10715;48.546;9.896;2022-11-11T07:47:30;1.10;99.90
21115;DHT22;10715;48.546;9.896;2022-11-11T07:49:56;1.20;99.90
21115;DHT22;10715;48.546;9.896;2022-11-11T07:52:22;1.30;99.90
21115;DHT22;10715;48.546;9.896;2022-11-11T07:54:49;1.40;99.90
21115;DHT22;10715;48.546;9.896;2022-11-11T07:57:14;1.50;99.90
21115;DHT22;10715;48.546;9.896;2022-11-11T07:59:40;1.60;99.90
21115;DHT22;10715;48.546;9.896;2022-11-11T08:02:09;1.70;99.90
21115;DHT22;10715;48.546;9.896;2022-11-11T08:04:35;1.80;99.90
21115;DHT22;10715;48.546;9.896;2022-11-11T08:07:01;2.00;99.90
21115;DHT22;10715;48.546;9.896;2022-11-11T08:09:27;2.10;99.90
21115;DHT22;10715;48.546;9.896;2022-11-11T08:11:52;2.30;99.90
21115;DHT22;10715;48.546;9.896;2022-11-11T08:14:36;2.40;99.90
21115;DHT22;10715;48.546;9.896;2022-11-11T08:17:02;2.60;99.90
21115;DHT22;10715;48.546;9.896;2022-11-11T08:19:28;2.80;99.90
21115;DHT22;10715;48.546;9.896;2022-11-11T08:21:54;3.00;99.90
21115;DHT22;10715;48.546;9.896;2022-11-11T08:24:19;3.20;99.90
21115;DHT22;10715;48.546;9.896;2022-11-11T08:26:46;3.30;99.90
21115;DHT22;10715;48.546;9.896;2022-11-11T08:29:11;3.40;99.90
21115;DHT22;10715;48.546;9.896;2022-11-11T08:31:37;3.40;99.90
21115;DHT22;10715;48.546;9.896;2022-11-11T08:34:04;3.40;99.90
21115;DHT22;10715;48.546;9.896;2022-11-11T08:36:30;3.50;99.90
21115;DHT22;10715;48.546;9.896;2022-11-11T08:38:56;3.50;99.90
21115;DHT22;10715;48.546;9.896;2022-11-11T08:41:21;3.60;99.90
21115;DHT22;10715;48.546;9.896;2022-11-11T08:43:51;3.70;99.90
21115;DHT22;10715;48.546;9.896;2022-11-11T08:46:17;3.70;99.90
21115;DHT22;10715;48.546;9.896;2022-11-11T08:48:43;3.70;99.90
21115;DHT22;10715;48.546;9.896;2022-11-11T08:51:09;3.70;99.90
21115;DHT22;10715;48.546;9.896;2022-11-11T08:53:35;3.80;99.90
21115;DHT22;10715;48.546;9.896;2022-11-11T08:56:04;3.80;99.90
21115;DHT22;10715;48.546;9.896;2022-11-11T08:58:30;3.90;99.90
21115;DHT22;10715;48.546;9.896;2022-11-11T09:00:56;4.10;99.90
21115;DHT22;10715;48.546;9.896;2022-11-11T09:03:22;4.20;99.90
21115;DHT22;10715;48.546;9.896;2022-11-11T09:05:48;4.40;99.90
21115;DHT22;10715;48.546;9.896;2022-11-11T09:08:14;4.60;99.90
21115;DHT22;10715;48.546;9.896;2022-11-11T09:10:39;4.90;99.90
21115;DHT22;10715;48.546;9.896;2022-11-11T09:13:05;5.20;99.90
21115;DHT22;10715;48.546;9.896;2022-11-11T09:15:32;5.40;99.90
21115;DHT22;10715;48.546;9.896;2022-11-11T09:17:58;5.60;99.90
21115;DHT22;10715;48.546;9.896;2022-11-11T09:20:24;5.70;99.90
21115;DHT22;10715;48.546;9.896;2022-11-11T09:22:50;6.00;99.90
21115;DHT22;10715;48.546;9.896;2022-11-11T09:25:18;6.30;99.90
21115;DHT22;10715;48.546;9.896;2022-11-11T09:27:43;6.60;99.90
21115;DHT22;10715;48.546;9.896;2022-11-11T09:30:17;6.90;99.90
21115;DHT22;10715;48.546;9.896;2022-11-11T09:32:43;7.30;99.90
21115;DHT22;10715;48.546;9.896;2022-11-11T09:35:09;7.80;99.90
21115;DHT22;10715;48.546;9.896;2022-11-11T09:37:34;8.20;99.90
21115;DHT22;10715;48.546;9.896;2022-11-11T09:40:00;8.50;99.90
21115;DHT22;10715;48.546;9.896;2022-11-11T09:42:35;8.80;99.90
21115;DHT22;10715;48.546;9.896;2022-11-11T09:50:50;13.30;99.90
21115;DHT22;10715;48.546;9.896;2022-11-11T09:53:39;15.50;99.90
21115;DHT22;10715;48.546;9.896;2022-11-11T09:56:09;17.10;99.90
21115;DHT22;10715;48.546;9.896;2022-11-11T09:58:46;17.50;99.90
21115;DHT22;10715;48.546;9.896;2022-11-11T10:01:20;16.80;99.90
21115;DHT22;10715;48.546;9.896;2022-11-11T10:04:01;15.80;99.90
21115;DHT22;10715;48.546;9.896;2022-11-11T10:06:30;14.80;99.90
21115;DHT22;10715;48.546;9.896;2022-11-11T10:09:14;13.90;99.90
21115;DHT22;10715;48.546;9.896;2022-11-11T10:12:11;13.20;99.90
21115;DHT22;10715;48.546;9.896;2022-11-11T10:14:40;12.90;99.90
21115;DHT22;10715;48.546;9.896;2022-11-11T10:17:32;12.80;99.90
21115;DHT22;10715;48.546;9.896;2022-11-11T10:22:44;12.40;99.90
21115;DHT22;10715;48.546;9.896;2022-11-11T10:27:45;11.80;99.90
21115;DHT22;10715;48.546;9.896;2022-11-11T10:30:17;11.40;99.90
21115;DHT22;10715;48.546;9.896;2022-11-11T10:32:46;11.10;99.90
21115;DHT22;10715;48.546;9.896;2022-11-11T10:35:20;10.90;99.90
21115;DHT22;10715;48.546;9.896;2022-11-11T10:37:50;10.80;99.90
21115;DHT22;10715;48.546;9.896;2022-11-11T10:40:32;10.50;99.90
21115;DHT22;10715;48.546;9.896;2022-11-11T10:42:59;10.60;99.90
21115;DHT22;10715;48.546;9.896;2022-11-11T10:48:17;10.70;99.90
21115;DHT22;10715;48.546;9.896;2022-11-11T10:50:54;10.60;99.90
21115;DHT22;10715;48.546;9.896;2022-11-11T10:53:27;10.50;99.90
21115;DHT22;10715;48.546;9.896;2022-11-11T11:04:41;10.10;99.90
21115;DHT22;10715;48.546;9.896;2022-11-11T11:07:12;10.10;99.90
21115;DHT22;10715;48.546;9.896;2022-11-11T11:10:00;10.10;99.90
21115;DHT22;10715;48.546;9.896;2022-11-11T11:12:44;10.10;99.90
21115;DHT22;10715;48.546;9.896;2022-11-11T11:15:20;10.00;99.90
21115;DHT22;10715;48.546;9.896;2022-11-11T11:18:02;10.00;99.90
21115;DHT22;10715;48.546;9.896;2022-11-11T11:20:29;10.00;99.90
21115;DHT22;10715;48.546;9.896;2022-11-11T11:22:56;9.90;99.90
21115;DHT22;10715;48.546;9.896;2022-11-11T11:25:28;9.70;99.90
21115;DHT22;10715;48.546;9.896;2022-11-11T11:28:13;9.60;99.90
21115;DHT22;10715;48.546;9.896;2022-11-11T11:30:39;9.40;99.90
21115;DHT22;10715;48.546;9.896;2022-11-11T11:33:08;9.40;99.90
21115;DHT22;10715;48.546;9.896;2022-11-11T11:35:37;9.30;99.90
21115;DHT22;10715;48.546;9.896;2022-11-11T11:38:05;9.30;99.90
21115;DHT22;10715;48.546;9.896;2022-11-11T11:43:35;9.30;99.90
21115;DHT22;10715;48.546;9.896;2022-11-11T11:46:15;9.40;99.90
21115;DHT22;10715;48.546;9.896;2022-11-11T11:57:02;9.40;99.90
21115;DHT22;10715;48.546;9.896;2022-11-11T12:14:32;9.20;99.90
21115;DHT22;10715;48.546;9.896;2022-11-11T12:17:18;9.30;99.90
21115;DHT22;10715;48.546;9.896;2022-11-11T12:23:05;9.50;99.90
21115;DHT22;10715;48.546;9.896;2022-11-11T12:53:30;9.50;99.90
21115;DHT22;10715;48.546;9.896;2022-11-11T12:56:10;9.50;99.90
21115;DHT22;10715;48.546;9.896;2022-11-11T12:59:03;9.60;99.90
21115;DHT22;10715;48.546;9.896;2022-11-11T13:09:50;9.70;99.90
21115;DHT22;10715;48.546;9.896;2022-11-11T13:15:14;9.70;99.90
21115;DHT22;10715;48.546;9.896;2022-11-11T13:17:40;9.70;99.90
21115;DHT22;10715;48.546;9.896;2022-11-11T13:20:20;9.70;99.90
21115;DHT22;10715;48.546;9.896;2022-11-11T13:22:51;9.70;99.90
21115;DHT22;10715;48.546;9.896;2022-11-11T13:25:23;9.70;99.90
21115;DHT22;10715;48.546;9.896;2022-11-11T13:27:52;9.70;99.90
21115;DHT22;10715;48.546;9.896;2022-11-11T13:33:04;9.80;99.90
21115;DHT22;10715;48.546;9.896;2022-11-11T13:35:46;9.90;99.90
21115;DHT22;10715;48.546;9.896;2022-11-11T13:40:55;10.10;99.90
21115;DHT22;10715;48.546;9.896;2022-11-11T13:46:02;10.20;99.90
21115;DHT22;10715;48.546;9.896;2022-11-11T13:48:37;10.20;99.90
21115;DHT22;10715;48.546;9.896;2022-11-11T13:53:46;10.20;99.90
21115;DHT22;10715;48.546;9.896;2022-11-11T13:56:43;10.20;99.90
21115;DHT22;10715;48.546;9.896;2022-11-11T13:59:27;10.20;99.90
21115;DHT22;10715;48.546;9.896;2022-11-11T14:12:54;9.80;99.90
21115;DHT22;10715;48.546;9.896;2022-11-11T14:15:46;9.70;99.90
21115;DHT22;10715;48.546;9.896;2022-11-11T14:20:53;9.70;99.90
21115;DHT22;10715;48.546;9.896;2022-11-11T14:23:37;9.60;99.90
21115;DHT22;10715;48.546;9.896;2022-11-11T14:28:48;9.50;99.90
21115;DHT22;10715;48.546;9.896;2022-11-11T14:49:52;8.30;99.90
21115;DHT22;10715;48.546;9.896;2022-11-11T14:57:34;7.80;99.90
21115;DHT22;10715;48.546;9.896;2022-11-11T15:00:24;7.70;99.90
21115;DHT22;10715;48.546;9.896;2022-11-11T15:05:43;7.50;99.90
21115;DHT22;10715;48.546;9.896;2022-11-11T15:08:23;7.40;99.90
21115;DHT22;10715;48.546;9.896;2022-11-11T15:21:46;7.20;99.90
21115;DHT22;10715;48.546;9.896;2022-11-11T15:24:31;7.10;99.90
21115;DHT22;10715;48.546;9.896;2022-11-11T15:30:08;7.10;99.90
21115;DHT22;10715;48.546;9.896;2022-11-11T15:35:41;6.90;99.90
21115;DHT22;10715;48.546;9.896;2022-11-11T15:38:11;6.80;99.90
21115;DHT22;10715;48.546;9.896;2022-11-11T15:40:49;6.70;99.90
21115;DHT22;10715;48.546;9.896;2022-11-11T15:43:25;6.60;99.90
21115;DHT22;10715;48.546;9.896;2022-11-11T15:46:01;6.50;99.90
21115;DHT22;10715;48.546;9.896;2022-11-11T15:48:32;6.40;99.90
21115;DHT22;10715;48.546;9.896;2022-11-11T15:51:21;6.40;99.90
21115;DHT22;10715;48.546;9.896;2022-11-11T15:53:50;6.30;99.90
21115;DHT22;10715;48.546;9.896;2022-11-11T15:56:32;6.20;99.90
21115;DHT22;10715;48.546;9.896;2022-11-11T15:59:23;6.10;99.90
21115;DHT22;10715;48.546;9.896;2022-11-11T16:01:51;6.10;99.90
21115;DHT22;10715;48.546;9.896;2022-11-11T16:04:21;6.10;99.90
21115;DHT22;10715;48.546;9.896;2022-11-11T16:06:48;6.10;99.90
21115;DHT22;10715;48.546;9.896;2022-11-11T16:09:18;6.10;99.90
21115;DHT22;10715;48.546;9.896;2022-11-11T16:11:47;6.00;99.90
21115;DHT22;10715;48.546;9.896;2022-11-11T16:14:36;6.00;99.90
21115;DHT22;10715;48.546;9.896;2022-11-11T16:17:03;5.90;99.90
21115;DHT22;10715;48.546;9.896;2022-11-11T16:19:37;5.80;99.90
21115;DHT22;10715;48.546;9.896;2022-11-11T16:22:18;5.80;99.90
21115;DHT22;10715;48.546;9.896;2022-11-11T16:24:45;5.70;99.90
21115;DHT22;10715;48.546;9.896;2022-11-11T16:27:18;5.60;99.90
21115;DHT22;10715;48.546;9.896;2022-11-11T16:29:45;5.60;99.90
21115;DHT22;10715;48.546;9.896;2022-11-11T16:34:52;5.60;99.90
21115;DHT22;10715;48.546;9.896;2022-11-11T16:37:20;5.60;99.90
21115;DHT22;10715;48.546;9.896;2022-11-11T16:39:46;5.60;99.90
21115;DHT22;10715;48.546;9.896;2022-11-11T16:42:25;5.60;99.90
21115;DHT22;10715;48.546;9.896;2022-11-11T16:45:02;5.50;99.90
21115;DHT22;10715;48.546;9.896;2022-11-11T16:50:08;5.40;99.90
21115;DHT22;10715;48.546;9.896;2022-11-11T16:53:01;5.40;99.90
21115;DHT22;10715;48.546;9.896;2022-11-11T16:55:36;5.40;99.90
21115;DHT22;10715;48.546;9.896;2022-11-11T16:58:20;5.40;99.90
21115;DHT22;10715;48.546;9.896;2022-11-11T17:00:46;5.30;99.90
21115;DHT22;10715;48.546;9.896;2022-11-11T17:03:18;5.30;99.90
21115;DHT22;10715;48.546;9.896;2022-11-11T17:05:58;5.30;99.90
21115;DHT22;10715;48.546;9.896;2022-11-11T17:08:44;5.30;99.90
21115;DHT22;10715;48.546;9.896;2022-11-11T17:14:03;5.30;99.90
21115;DHT22;10715;48.546;9.896;2022-11-11T17:16:29;5.20;99.90
21115;DHT22;10715;48.546;9.896;2022-11-11T17:18:56;5.10;99.90
21115;DHT22;10715;48.546;9.896;2022-11-11T17:21:23;5.00;99.90
21115;DHT22;10715;48.546;9.896;2022-11-11T17:23:49;5.00;99.90
21115;DHT22;10715;48.546;9.896;2022-11-11T17:26:16;5.00;99.90
21115;DHT22;10715;48.546;9.896;2022-11-11T17:28:42;5.00;99.90
21115;DHT22;10715;48.546;9.896;2022-11-11T17:31:09;5.00;99.90
21115;DHT22;10715;48.546;9.896;2022-11-11T17:33:35;5.00;99.90
21115;DHT22;10715;48.546;9.896;2022-11-11T17:36:01;5.00;99.90
21115;DHT22;10715;48.546;9.896;2022-11-11T17:38:27;4.90;99.90
21115;DHT22;10715;48.546;9.896;2022-11-11T17:40:53;4.90;99.90
21115;DHT22;10715;48.546;9.896;2022-11-11T17:43:19;4.90;99.90
21115;DHT22;10715;48.546;9.896;2022-11-11T17:45:44;4.90;99.90
21115;DHT22;10715;48.546;9.896;2022-11-11T17:48:11;4.70;99.90
21115;DHT22;10715;48.546;9.896;2022-11-11T17:50:38;4.70;99.90
21115;DHT22;10715;48.546;9.896;2022-11-11T17:53:05;4.60;99.90
21115;DHT22;10715;48.546;9.896;2022-11-11T17:55:32;4.50;99.90
21115;DHT22;10715;48.546;9.896;2022-11-11T17:57:59;4.50;99.90
21115;DHT22;10715;48.546;9.896;2022-11-11T18:00:26;4.50;99.90
21115;DHT22;10715;48.546;9.896;2022-11-11T18:02:52;4.50;99.90
21115;DHT22;10715;48.546;9.896;2022-11-11T18:05:17;4.50;99.90
21115;DHT22;10715;48.546;9.896;2022-11-11T18:07:43;4.50;99.90
21115;DHT22;10715;48.546;9.896;2022-11-11T18:10:10;4.40;99.90
21115;DHT22;10715;48.546;9.896;2022-11-11T18:12:36;4.40;99.90
21115;DHT22;10715;48.546;9.896;2022-11-11T18:15:03;4.30;99.90
21115;DHT22;10715;48.546;9.896;2022-11-11T18:17:29;4.30;99.90
21115;DHT22;10715;48.546;9.896;2022-11-11T18:19:55;4.30;99.90
21115;DHT22;10715;48.546;9.896;2022-11-11T18:22:20;4.30;99.90
21115;DHT22;10715;48.546;9.896;2022-11-11T18:24:46;4.20;99.90
21115;DHT22;10715;48.546;9.896;2022-11-11T18:27:12;4.20;99.90
21115;DHT22;10715;48.546;9.896;2022-11-11T18:29:38;4.20;99.90
21115;DHT22;10715;48.546;9.896;2022-11-11T18:32:04;4.10;99.90
21115;DHT22;10715;48.546;9.896;2022-11-11T18:34:29;4.00;99.90
21115;DHT22;10715;48.546;9.896;2022-11-11T18:36:55;4.00;99.90
21115;DHT22;10715;48.546;9.896;2022-11-11T18:39:21;3.90;99.90
21115;DHT22;10715;48.546;9.896;2022-11-11T18:41:46;3.90;99.90
21115;DHT22;10715;48.546;9.896;2022-11-11T18:44:12;3.80;99.90
21115;DHT22;10715;48.546;9.896;2022-11-11T18:46:38;3.80;99.90
21115;DHT22;10715;48.546;9.896;2022-11-11T18:49:05;3.80;99.90
21115;DHT22;10715;48.546;9.896;2022-11-11T18:51:31;3.80;99.90
21115;DHT22;10715;48.546;9.896;2022-11-11T18:54:02;3.70;99.90
21115;DHT22;10715;48.546;9.896;2022-11-11T18:56:28;3.70;99.90
21115;DHT22;10715;48.546;9.896;2022-11-11T18:58:59;3.70;99.90
21115;DHT22;10715;48.546;9.896;2022-11-11T19:01:27;3.80;99.90